Time;durP1;ratioP1;P1;durP2;ratioP2;P2;SDS_P1;SDS_P2;PMS_P1;PMS_P2;Temp;Humidity;BMP_temperature;BMP_pressure;BME280_temperature;BME280_humidity;BME280_pressure;Samples;Min_cycle;Max_cycle;Signal;HPM_P1;HPM_P2
2023/09/14 00:02:22;;;;;;;6.63;2.73;;;15.60;99.90;;;;;;4975740;28;20560;-79
2023/09/14 00:04:48;;;;;;;5.53;2.20;;;15.50;99.90;;;;;;4976105;28;20989;-79
2023/09/14 00:07:15;;;;;;;3.27;2.10;;;15.50;99.90;;;;;;4975859;28;20816;-79
2023/09/14 00:09:42;;;;;;;4.63;2.73;;;15.50;99.90;;;;;;4976402;28;20458;-79
2023/09/14 00:12:09;;;;;;;4.37;2.30;;;15.50;99.90;;;;;;4975823;28;20470;-79
2023/09/14 00:14:37;;;;;;;3.50;2.37;;;15.50;99.90;;;;;;4975205;28;20494;-79
2023/09/14 00:17:06;;;;;;;6.93;2.20;;;15.40;99.90;;;;;;4975682;28;20462;-79
2023/09/14 00:19:45;;;;;;;4.80;2.50;;;15.40;99.90;;;;;;4975955;28;20469;-79
2023/09/14 00:22:12;;;;;;;6.20;2.00;;;15.40;99.90;;;;;;4976030;28;20455;-79
2023/09/14 00:24:39;;;;;;;2.53;2.10;;;15.30;99.90;;;;;;4975620;28;20466;-78
2023/09/14 00:27:06;;;;;;;4.37;2.23;;;15.30;99.90;;;;;;4976066;28;20464;-79
2023/09/14 00:29:33;;;;;;;2.97;2.13;;;15.30;99.90;;;;;;4976101;28;20849;-79
2023/09/14 00:32:01;;;;;;;6.13;1.97;;;15.20;99.90;;;;;;4976043;28;20457;-78
2023/09/14 00:34:27;;;;;;;3.27;1.73;;;15.20;99.90;;;;;;4968247;28;20498;-79
2023/09/14 00:36:54;;;;;;;5.90;2.80;;;15.20;99.90;;;;;;4976131;28;20469;-79
2023/09/14 00:39:21;;;;;;;4.40;2.60;;;15.20;99.90;;;;;;4975664;28;20487;-79
2023/09/14 00:41:48;;;;;;;5.30;2.53;;;15.20;99.90;;;;;;4975909;28;20458;-80
2023/09/14 00:44:15;;;;;;;5.63;2.67;;;15.20;99.90;;;;;;4975238;28;20562;-79
2023/09/14 00:46:41;;;;;;;3.60;2.00;;;15.20;99.90;;;;;;4975356;28;20463;-79
2023/09/14 00:49:09;;;;;;;6.70;2.13;;;15.10;99.90;;;;;;4975544;28;20479;-79
2023/09/14 00:51:37;;;;;;;4.97;2.33;;;15.10;99.90;;;;;;4976000;28;20470;-79
2023/09/14 00:54:04;;;;;;;4.47;2.03;;;15.00;99.90;;;;;;4975601;28;20546;-79
2023/09/14 00:56:32;;;;;;;4.10;2.47;;;14.90;99.90;;;;;;4975960;28;20470;-79
2023/09/14 00:58:59;;;;;;;5.93;2.60;;;15.00;99.90;;;;;;4975817;28;20854;-79
2023/09/14 01:01:26;;;;;;;4.60;2.20;;;15.00;99.90;;;;;;4975636;28;20793;-79
2023/09/14 01:03:53;;;;;;;4.03;2.10;;;14.90;99.90;;;;;;4976108;28;20465;-79
2023/09/14 01:06:24;;;;;;;3.60;1.97;;;14.90;99.90;;;;;;4975565;28;20457;-79
2023/09/14 01:08:53;;;;;;;5.50;2.60;;;14.90;99.90;;;;;;4975672;28;20518;-78
2023/09/14 01:11:20;;;;;;;4.30;1.87;;;14.90;99.90;;;;;;4975261;28;20477;-79
2023/09/14 01:13:58;;;;;;;3.07;2.53;;;14.90;99.90;;;;;;4975404;28;20514;-80
2023/09/14 01:16:31;;;;;;;6.20;2.97;;;14.90;99.90;;;;;;4975251;28;20464;-79
2023/09/14 01:19:11;;;;;;;3.27;2.37;;;14.90;99.90;;;;;;4975450;28;20481;-79
2023/09/14 01:21:57;;;;;;;3.20;2.13;;;14.80;99.90;;;;;;4975342;28;20949;-78
2023/09/14 01:24:32;;;;;;;4.10;2.47;;;14.80;99.90;;;;;;4975200;28;20466;-79
2023/09/14 01:27:01;;;;;;;6.10;2.90;;;14.90;99.90;;;;;;4975054;28;20871;-78
2023/09/14 01:29:28;;;;;;;5.23;2.70;;;14.80;99.90;;;;;;4969596;28;20593;-78
2023/09/14 01:31:54;;;;;;;3.50;2.27;;;14.80;99.90;;;;;;4978735;28;20906;-79
2023/09/14 01:34:22;;;;;;;3.17;1.97;;;14.70;99.90;;;;;;4974977;28;20506;-79
2023/09/14 01:36:55;;;;;;;4.57;2.50;;;14.70;99.90;;;;;;4974779;28;20562;-77
2023/09/14 01:39:24;;;;;;;3.53;2.40;;;14.60;99.90;;;;;;4975374;28;20486;-79
2023/09/14 01:41:55;;;;;;;6.53;2.60;;;14.70;99.90;;;;;;4975670;28;20467;-78
2023/09/14 01:44:25;;;;;;;5.57;2.10;;;14.70;99.90;;;;;;4972987;28;20969;-77
2023/09/14 01:46:52;;;;;;;4.80;2.13;;;14.60;99.90;;;;;;4966521;28;20456;-79
2023/09/14 01:49:19;;;;;;;3.30;2.00;;;14.60;99.90;;;;;;4973374;28;20485;-79
2023/09/14 01:51:46;;;;;;;3.90;2.33;;;14.60;99.90;;;;;;4976273;28;21043;-79
2023/09/14 01:54:12;;;;;;;6.60;2.90;;;14.60;99.90;;;;;;4976365;28;20465;-79
2023/09/14 01:56:39;;;;;;;4.47;2.60;;;14.60;99.90;;;;;;4977070;28;20470;-79
2023/09/14 01:59:06;;;;;;;5.90;2.30;;;14.70;99.90;;;;;;4980125;28;20500;-79
2023/09/14 02:01:34;;;;;;;5.37;2.60;;;14.60;99.90;;;;;;4979436;28;20469;-78
2023/09/14 02:04:01;;;;;;;3.50;2.30;;;14.60;99.90;;;;;;4979659;28;20463;-78
2023/09/14 02:06:28;;;;;;;6.83;2.77;;;14.60;99.90;;;;;;4971821;28;21044;-80
2023/09/14 02:08:54;;;;;;;3.70;2.57;;;14.60;99.90;;;;;;4978994;28;20554;-79
2023/09/14 02:11:21;;;;;;;4.70;2.70;;;14.60;99.90;;;;;;4978610;28;20478;-79
2023/09/14 02:13:48;;;;;;;5.60;2.30;;;14.60;99.90;;;;;;4979260;28;20957;-80
2023/09/14 02:16:16;;;;;;;6.70;2.50;;;14.50;99.90;;;;;;4978978;28;20517;-79
2023/09/14 02:18:44;;;;;;;3.33;2.40;;;14.50;99.90;;;;;;4978596;28;20525;-80
2023/09/14 02:21:12;;;;;;;5.97;2.13;;;14.50;99.90;;;;;;4979153;28;20511;-79
2023/09/14 02:23:39;;;;;;;3.90;2.20;;;14.50;99.90;;;;;;4979710;28;20849;-79
2023/09/14 02:26:06;;;;;;;4.83;2.10;;;14.50;99.90;;;;;;4979542;28;20462;-79
2023/09/14 02:28:33;;;;;;;7.23;2.30;;;14.50;99.90;;;;;;4978471;28;20475;-79
2023/09/14 02:30:59;;;;;;;5.90;2.40;;;14.40;99.90;;;;;;4979117;28;20970;-80
2023/09/14 02:33:26;;;;;;;9.57;2.80;;;14.40;99.90;;;;;;4970666;28;20477;-79
2023/09/14 02:35:54;;;;;;;4.10;2.50;;;14.40;99.90;;;;;;4979347;28;20498;-79
2023/09/14 02:38:22;;;;;;;4.13;1.97;;;14.40;99.90;;;;;;4978695;28;20480;-80
2023/09/14 02:40:48;;;;;;;5.13;2.10;;;14.40;99.90;;;;;;4977932;28;20466;-79
2023/09/14 02:43:15;;;;;;;5.30;2.50;;;14.40;99.90;;;;;;4979239;28;20507;-79
2023/09/14 02:45:42;;;;;;;6.43;2.10;;;14.40;99.90;;;;;;4978977;28;20458;-80
2023/09/14 02:48:09;;;;;;;3.83;2.30;;;14.40;99.90;;;;;;4976715;28;20482;-80
2023/09/14 02:50:36;;;;;;;5.40;2.10;;;14.40;99.90;;;;;;4978535;28;20641;-80
2023/09/14 02:53:04;;;;;;;4.60;2.07;;;14.30;99.90;;;;;;4976855;28;20822;-80
2023/09/14 02:55:34;;;;;;;4.43;1.50;;;14.20;99.90;;;;;;4977208;28;20491;-80
2023/09/14 02:58:00;;;;;;;3.47;1.90;;;14.20;99.90;;;;;;4978645;28;20477;-80
2023/09/14 03:00:27;;;;;;;4.37;2.00;;;14.20;99.90;;;;;;4979194;28;20457;-79
2023/09/14 03:02:53;;;;;;;3.60;2.23;;;14.20;99.90;;;;;;4980889;28;20526;-79
2023/09/14 03:05:20;;;;;;;4.77;2.00;;;14.10;99.90;;;;;;4981820;28;20797;-79
2023/09/14 03:07:48;;;;;;;2.47;1.80;;;14.10;99.90;;;;;;4981756;28;20472;-78
2023/09/14 03:10:16;;;;;;;5.40;1.93;;;14.20;99.90;;;;;;4981562;28;20468;-81
2023/09/14 03:12:43;;;;;;;4.50;1.87;;;14.20;99.90;;;;;;4980092;28;20457;-78
2023/09/14 03:15:10;;;;;;;4.13;2.17;;;14.20;99.90;;;;;;4978457;28;20494;-78
2023/09/14 03:17:37;;;;;;;4.30;1.73;;;14.20;99.90;;;;;;4976842;28;20487;-78
2023/09/14 03:20:06;;;;;;;5.57;2.03;;;14.20;99.90;;;;;;4978031;28;20459;-78
2023/09/14 03:22:33;;;;;;;4.03;2.30;;;14.10;99.90;;;;;;4978233;28;20487;-78
2023/09/14 03:25:00;;;;;;;5.30;2.03;;;14.10;99.90;;;;;;4978669;28;20462;-78
2023/09/14 03:27:28;;;;;;;5.97;2.17;;;14.10;99.90;;;;;;4978304;28;20488;-79
2023/09/14 03:29:55;;;;;;;5.13;2.60;;;14.10;99.90;;;;;;4980844;28;20502;-79
2023/09/14 03:32:22;;;;;;;2.47;1.47;;;14.20;99.90;;;;;;4977989;28;20498;-78
2023/09/14 03:34:49;;;;;;;5.23;2.00;;;14.20;99.90;;;;;;4982714;28;20483;-77
2023/09/14 03:37:15;;;;;;;4.50;2.70;;;14.20;99.90;;;;;;4980552;28;20554;-77
2023/09/14 03:39:45;;;;;;;4.23;2.27;;;14.20;99.90;;;;;;4975418;28;20462;-78
2023/09/14 03:42:12;;;;;;;5.10;2.80;;;14.20;99.90;;;;;;4975251;28;20495;-77
2023/09/14 03:44:40;;;;;;;5.40;2.70;;;14.30;99.90;;;;;;4974077;28;20460;-77
2023/09/14 03:47:07;;;;;;;9.03;2.70;;;14.30;99.90;;;;;;4977134;28;20472;-78
2023/09/14 03:49:34;;;;;;;4.00;2.17;;;14.30;99.90;;;;;;4976305;28;20535;-77
2023/09/14 03:52:01;;;;;;;5.83;2.43;;;14.30;99.90;;;;;;4972170;28;20840;-78
2023/09/14 03:54:28;;;;;;;4.27;2.03;;;14.30;99.90;;;;;;4970091;28;20450;-77
2023/09/14 03:56:55;;;;;;;7.13;2.90;;;14.40;99.90;;;;;;4974518;28;20487;-77
2023/09/14 03:59:22;;;;;;;2.80;1.57;;;14.30;99.90;;;;;;4970115;28;20477;-76
2023/09/14 04:01:50;;;;;;;8.50;2.13;;;14.30;99.90;;;;;;4973602;28;20457;-77
2023/09/14 04:04:17;;;;;;;5.90;2.47;;;14.40;99.90;;;;;;4973311;28;20462;-78
2023/09/14 04:06:47;;;;;;;3.23;2.10;;;14.40;99.90;;;;;;4974638;28;20466;-78
2023/09/14 04:09:13;;;;;;;5.13;2.30;;;14.40;99.90;;;;;;4974894;28;20479;-77
2023/09/14 04:11:41;;;;;;;4.23;3.03;;;14.40;99.90;;;;;;4975992;28;20470;-77
2023/09/14 04:14:08;;;;;;;2.80;2.10;;;14.50;99.90;;;;;;4977116;28;20460;-78
2023/09/14 04:16:34;;;;;;;3.73;1.80;;;14.50;99.90;;;;;;4973848;28;20484;-77
2023/09/14 04:19:03;;;;;;;6.93;2.53;;;14.50;99.90;;;;;;4974279;28;20489;-77
2023/09/14 04:21:30;;;;;;;5.83;2.53;;;14.50;99.90;;;;;;4969630;28;20487;-77
2023/09/14 04:23:56;;;;;;;6.90;2.67;;;14.50;99.90;;;;;;4977004;28;20451;-77
2023/09/14 04:26:25;;;;;;;5.33;2.20;;;14.50;99.90;;;;;;4974165;28;20450;-77
2023/09/14 04:28:51;;;;;;;4.77;2.23;;;14.50;99.90;;;;;;4973841;28;20473;-77
2023/09/14 04:31:18;;;;;;;5.93;3.23;;;14.60;99.90;;;;;;4974284;28;20455;-78
2023/09/14 04:33:45;;;;;;;6.13;2.47;;;14.60;99.90;;;;;;4975111;28;20455;-77
2023/09/14 04:36:13;;;;;;;6.53;2.87;;;14.70;99.90;;;;;;4974486;28;20535;-77
2023/09/14 04:38:40;;;;;;;5.83;2.70;;;14.70;99.90;;;;;;4973666;28;20997;-77
2023/09/14 04:41:07;;;;;;;6.60;2.60;;;14.70;99.90;;;;;;4974079;28;20456;-77
2023/09/14 04:43:34;;;;;;;5.20;2.20;;;14.80;99.90;;;;;;4974037;28;20464;-77
2023/09/14 04:46:01;;;;;;;5.13;2.37;;;14.70;99.90;;;;;;4973731;28;20822;-77
2023/09/14 04:48:29;;;;;;;4.20;2.50;;;14.70;99.90;;;;;;4973587;28;20503;-77
2023/09/14 04:50:57;;;;;;;10.63;3.73;;;14.80;99.90;;;;;;4973920;28;20455;-77
2023/09/14 04:53:26;;;;;;;5.90;2.30;;;14.80;99.90;;;;;;4974058;28;20455;-77
2023/09/14 04:55:53;;;;;;;6.67;3.00;;;14.80;99.90;;;;;;4973775;28;20492;-78
2023/09/14 04:58:21;;;;;;;6.67;2.20;;;14.80;99.90;;;;;;4973252;28;20475;-77
2023/09/14 05:00:50;;;;;;;3.50;2.50;;;14.80;99.90;;;;;;4974025;28;20462;-78
2023/09/14 05:03:18;;;;;;;8.97;2.90;;;14.80;99.90;;;;;;4973803;28;20462;-78
2023/09/14 05:05:49;;;;;;;5.60;2.50;;;14.80;99.90;;;;;;4973596;28;20454;-76
2023/09/14 05:08:16;;;;;;;4.47;2.77;;;14.80;99.90;;;;;;4973823;28;20488;-78
2023/09/14 05:10:44;;;;;;;5.47;2.90;;;14.80;99.90;;;;;;4973849;28;20480;-77
2023/09/14 05:13:11;;;;;;;6.20;2.63;;;14.90;99.90;;;;;;4973730;28;20491;-77
2023/09/14 05:15:38;;;;;;;5.00;2.30;;;14.90;99.90;;;;;;4973799;28;21036;-77
2023/09/14 05:18:05;;;;;;;5.03;3.13;;;14.90;99.90;;;;;;4973495;28;20845;-77
2023/09/14 05:20:32;;;;;;;5.37;3.03;;;15.00;99.90;;;;;;4973672;28;20547;-77
2023/09/14 05:22:59;;;;;;;6.40;2.37;;;14.90;99.90;;;;;;4973650;28;20968;-77
2023/09/14 05:25:27;;;;;;;5.20;2.87;;;14.90;99.90;;;;;;4973737;28;20986;-77
2023/09/14 05:27:56;;;;;;;4.90;2.70;;;14.90;99.90;;;;;;4973476;28;20920;-76
2023/09/14 05:30:24;;;;;;;6.30;2.90;;;15.00;99.90;;;;;;4973557;28;20523;-77
2023/09/14 05:32:51;;;;;;;8.33;2.90;;;15.00;99.90;;;;;;4973382;28;20550;-78
2023/09/14 05:35:19;;;;;;;6.80;3.90;;;15.00;99.90;;;;;;4973596;28;20462;-77
2023/09/14 05:37:46;;;;;;;6.83;3.60;;;15.00;99.90;;;;;;4974649;28;20477;-77
2023/09/14 05:40:14;;;;;;;4.87;3.07;;;15.00;99.90;;;;;;4982233;28;20968;-77
2023/09/14 05:42:42;;;;;;;3.57;2.80;;;15.00;99.90;;;;;;4974609;28;20553;-77
2023/09/14 05:45:12;;;;;;;7.23;3.07;;;15.00;99.90;;;;;;4973541;28;20880;-78
2023/09/14 05:47:39;;;;;;;6.37;3.60;;;15.00;99.90;;;;;;4973425;28;20494;-78
2023/09/14 05:50:08;;;;;;;7.30;3.20;;;15.00;99.90;;;;;;4973702;28;20456;-77
2023/09/14 05:52:35;;;;;;;4.60;2.53;;;15.10;99.90;;;;;;4973597;28;20452;-78
2023/09/14 05:55:03;;;;;;;5.73;3.10;;;15.10;99.90;;;;;;4974995;28;20501;-77
2023/09/14 05:57:30;;;;;;;5.07;2.73;;;15.10;99.90;;;;;;4975367;28;21063;-78
2023/09/14 05:59:57;;;;;;;7.57;3.93;;;15.20;99.90;;;;;;4975583;28;20557;-78
2023/09/14 06:02:25;;;;;;;12.77;3.07;;;15.20;99.90;;;;;;4975819;28;20458;-78
2023/09/14 06:04:53;;;;;;;6.70;2.83;;;15.20;99.90;;;;;;4975652;28;20467;-78
2023/09/14 06:07:25;;;;;;;8.80;3.30;;;15.20;99.90;;;;;;4974951;28;20490;-78
2023/09/14 06:09:52;;;;;;;4.40;2.50;;;15.30;99.90;;;;;;4975881;28;20457;-78
2023/09/14 06:12:19;;;;;;;8.70;2.70;;;15.30;99.90;;;;;;4975085;28;20463;-78
2023/09/14 06:14:46;;;;;;;7.33;2.87;;;15.30;99.90;;;;;;4975462;28;20535;-78
2023/09/14 06:17:13;;;;;;;6.80;3.10;;;15.30;99.90;;;;;;4973789;28;20497;-77
2023/09/14 06:19:41;;;;;;;3.47;2.63;;;15.40;99.90;;;;;;4974813;28;20460;-78
2023/09/14 06:22:08;;;;;;;8.50;3.27;;;15.50;99.90;;;;;;4975201;28;20468;-77
2023/09/14 06:24:36;;;;;;;6.47;3.40;;;15.50;99.90;;;;;;4978341;28;20466;-78
2023/09/14 06:27:03;;;;;;;6.37;3.40;;;15.60;99.90;;;;;;4975201;28;20469;-78
2023/09/14 06:29:29;;;;;;;6.80;3.20;;;15.60;99.90;;;;;;4975579;28;20567;-78
2023/09/14 06:31:56;;;;;;;6.80;2.70;;;15.60;99.90;;;;;;4975209;28;20455;-78
2023/09/14 06:34:23;;;;;;;7.33;3.37;;;15.70;99.90;;;;;;4974138;28;20449;-78
2023/09/14 06:36:51;;;;;;;5.80;3.60;;;15.80;99.90;;;;;;4973535;28;21012;-78
2023/09/14 06:39:18;;;;;;;7.83;4.50;;;15.80;99.90;;;;;;4974129;28;20477;-77
2023/09/14 06:41:45;;;;;;;8.23;3.10;;;15.90;99.90;;;;;;4973994;28;20456;-78
2023/09/14 06:44:13;;;;;;;4.63;3.37;;;15.90;99.90;;;;;;4977053;28;20455;-77
2023/09/14 06:46:40;;;;;;;12.83;4.30;;;15.90;99.90;;;;;;4977449;28;20461;-78
2023/09/14 06:49:07;;;;;;;6.30;3.60;;;16.00;99.90;;;;;;4978099;28;21020;-78
2023/09/14 06:51:33;;;;;;;10.30;4.00;;;16.00;99.90;;;;;;4977597;28;20463;-78
2023/09/14 06:54:01;;;;;;;4.20;3.37;;;16.10;99.90;;;;;;4977592;28;20462;-78
2023/09/14 06:56:28;;;;;;;7.10;3.10;;;16.10;99.90;;;;;;4977472;28;20504;-77
2023/09/14 06:58:55;;;;;;;6.20;3.30;;;16.10;99.90;;;;;;4975717;28;20483;-77
2023/09/14 07:01:22;;;;;;;4.60;3.27;;;16.20;99.90;;;;;;4975871;28;20846;-77
2023/09/14 07:03:51;;;;;;;9.67;3.73;;;16.10;99.90;;;;;;4976111;28;20553;-77
2023/09/14 07:06:17;;;;;;;5.87;3.60;;;16.20;99.90;;;;;;4975806;28;20451;-77
2023/09/14 07:08:44;;;;;;;5.50;3.60;;;16.30;99.90;;;;;;4975978;28;20475;-78
2023/09/14 07:11:12;;;;;;;4.30;3.43;;;16.40;99.90;;;;;;4975931;28;20467;-77
2023/09/14 07:13:39;;;;;;;5.93;3.43;;;16.40;99.90;;;;;;4975713;28;20498;-78
2023/09/14 07:16:06;;;;;;;8.30;4.17;;;16.50;99.90;;;;;;4975795;28;21065;-78
2023/09/14 07:18:34;;;;;;;5.40;3.47;;;16.50;99.90;;;;;;4975641;28;20479;-78
2023/09/14 07:21:02;;;;;;;6.70;3.23;;;16.60;99.90;;;;;;4975858;28;20452;-77
2023/09/14 07:23:30;;;;;;;6.20;3.30;;;16.60;99.90;;;;;;4975622;28;20459;-77
2023/09/14 07:25:57;;;;;;;6.23;3.20;;;16.70;99.90;;;;;;4976030;28;20893;-77
2023/09/14 07:28:25;;;;;;;7.97;4.00;;;16.80;99.90;;;;;;4976002;28;20476;-76
2023/09/14 07:30:53;;;;;;;6.70;3.30;;;16.80;99.90;;;;;;4975529;28;20552;-77
2023/09/14 07:33:21;;;;;;;8.63;3.60;;;16.80;99.90;;;;;;4975618;28;20453;-77
2023/09/14 07:35:48;;;;;;;6.47;3.20;;;16.80;99.90;;;;;;4975554;28;20460;-77
2023/09/14 07:38:15;;;;;;;8.07;3.40;;;16.90;99.90;;;;;;4975285;28;20507;-77
2023/09/14 07:40:43;;;;;;;7.73;4.23;;;17.00;99.90;;;;;;4975416;28;20543;-77
2023/09/14 07:43:10;;;;;;;7.90;3.70;;;17.00;99.90;;;;;;4980946;28;20464;-77
2023/09/14 07:45:38;;;;;;;7.97;4.13;;;17.00;99.90;;;;;;4982206;28;20471;-77
2023/09/14 07:48:07;;;;;;;8.33;3.70;;;17.10;99.90;;;;;;4974791;28;20474;-77
2023/09/14 07:50:39;;;;;;;8.93;4.00;;;17.20;99.90;;;;;;4974808;28;20465;-78
2023/09/14 07:53:05;;;;;;;8.87;3.87;;;17.20;99.90;;;;;;4976461;28;20461;-78
2023/09/14 07:55:32;;;;;;;9.63;4.30;;;17.20;99.90;;;;;;4975245;28;20965;-78
2023/09/14 07:57:59;;;;;;;8.80;4.40;;;17.30;99.90;;;;;;4974692;28;20885;-77
2023/09/14 08:00:26;;;;;;;9.37;4.53;;;17.30;99.90;;;;;;4974985;28;20463;-78
2023/09/14 08:02:55;;;;;;;8.50;5.47;;;17.40;99.90;;;;;;4976239;28;20907;-77
2023/09/14 08:05:22;;;;;;;5.97;4.23;;;17.40;99.90;;;;;;4974842;28;20452;-77
2023/09/14 08:07:48;;;;;;;10.23;3.90;;;17.50;99.90;;;;;;4974280;28;20478;-78
2023/09/14 08:10:15;;;;;;;9.00;4.43;;;17.50;99.90;;;;;;4974689;28;20462;-77
2023/09/14 08:12:42;;;;;;;6.60;3.93;;;17.60;99.90;;;;;;4974913;28;20540;-77
2023/09/14 08:15:10;;;;;;;7.70;3.77;;;17.60;99.90;;;;;;4974672;28;20556;-78
2023/09/14 08:17:36;;;;;;;7.70;4.67;;;17.70;99.90;;;;;;4974304;28;21101;-77
2023/09/14 08:20:05;;;;;;;9.40;4.10;;;17.70;99.90;;;;;;4974417;28;20451;-78
2023/09/14 08:22:33;;;;;;;5.93;3.77;;;17.70;99.90;;;;;;4974446;28;20478;-78
2023/09/14 08:25:00;;;;;;;8.47;3.83;;;17.70;99.90;;;;;;4974418;28;20454;-77
2023/09/14 08:27:28;;;;;;;5.83;3.73;;;17.70;99.90;;;;;;4973937;28;20981;-77
2023/09/14 08:29:55;;;;;;;8.27;4.67;;;17.80;99.90;;;;;;4974372;28;20469;-77
2023/09/14 08:32:22;;;;;;;7.83;4.40;;;17.80;99.90;;;;;;4974356;28;20478;-77
2023/09/14 08:34:49;;;;;;;8.87;4.57;;;17.80;99.90;;;;;;4974412;28;20908;-76
2023/09/14 08:37:18;;;;;;;7.93;5.20;;;17.90;99.90;;;;;;4973873;28;20505;-77
2023/09/14 08:39:45;;;;;;;6.80;4.43;;;17.80;62.50;;;;;;4974077;28;20510;-78
2023/09/14 08:42:13;;;;;;;7.03;5.30;;;17.90;99.90;;;;;;4974961;28;20942;-78
2023/09/14 08:44:43;;;;;;;6.40;4.37;;;18.00;36.70;;;;;;4973750;28;20465;-77
2023/09/14 08:47:10;;;;;;;6.80;4.10;;;18.10;93.80;;;;;;4973668;28;20960;-77
2023/09/14 08:49:39;;;;;;;6.93;4.63;;;18.10;38.50;;;;;;4973884;28;20511;-77
2023/09/14 08:52:07;;;;;;;6.33;4.57;;;18.20;88.70;;;;;;4973764;28;20972;-77
2023/09/14 08:54:36;;;;;;;10.47;4.73;;;18.30;66.20;;;;;;4974307;28;20839;-77
2023/09/14 08:57:06;;;;;;;8.77;4.60;;;18.30;52.30;;;;;;4973475;28;20886;-77
2023/09/14 08:59:35;;;;;;;6.73;4.27;;;18.50;52.60;;;;;;4973727;28;20475;-78
2023/09/14 09:02:02;;;;;;;8.00;4.50;;;18.70;71.60;;;;;;4973845;28;20494;-77
2023/09/14 09:04:30;;;;;;;9.63;3.97;;;18.80;20.10;;;;;;4974153;28;20821;-78
2023/09/14 09:06:57;;;;;;;8.00;4.30;;;19.00;1.00;;;;;;4972892;28;20448;-78
2023/09/14 09:09:25;;;;;;;6.87;3.63;;;19.00;1.00;;;;;;4973814;28;20471;-78
2023/09/14 09:11:53;;;;;;;5.67;2.57;;;19.20;1.00;;;;;;4973783;28;20471;-78
2023/09/14 09:14:20;;;;;;;6.60;3.23;;;19.20;1.00;;;;;;4973599;28;20474;-78
2023/09/14 09:16:47;;;;;;;4.70;2.47;;;19.00;99.90;;;;;;4973549;28;20530;-77
2023/09/14 09:19:15;;;;;;;4.90;2.33;;;19.20;1.00;;;;;;4973123;28;20475;-77
2023/09/14 09:21:43;;;;;;;5.10;2.70;;;19.40;1.00;;;;;;4973442;28;20459;-77
2023/09/14 09:24:13;;;;;;;5.80;1.97;;;19.50;99.90;;;;;;4973239;28;20451;-77
2023/09/14 09:26:41;;;;;;;6.37;2.73;;;19.60;99.90;;;;;;4973128;28;20983;-77
2023/09/14 09:29:16;;;;;;;8.93;2.90;;;19.60;99.90;;;;;;4973047;28;21001;-77
2023/09/14 09:31:44;;;;;;;6.50;2.23;;;19.40;77.20;;;;;;4973177;28;20467;-77
2023/09/14 09:34:12;;;;;;;3.90;2.20;;;19.40;1.00;;;;;;4973219;28;20459;-77
2023/09/14 09:36:39;;;;;;;4.50;2.77;;;19.20;1.00;;;;;;4972836;28;20822;-77
2023/09/14 09:39:07;;;;;;;4.30;2.13;;;19.20;99.90;;;;;;4972803;28;20479;-77
2023/09/14 09:41:34;;;;;;;6.80;2.67;;;19.10;99.90;;;;;;4972958;28;20490;-77
2023/09/14 09:44:05;;;;;;;4.67;2.17;;;19.20;99.90;;;;;;4973314;28;20459;-77
2023/09/14 09:46:35;;;;;;;9.80;2.70;;;19.20;99.90;;;;;;4974283;28;20451;-77
2023/09/14 09:49:04;;;;;;;4.80;1.97;;;19.20;1.00;;;;;;4975316;28;20475;-77
2023/09/14 09:51:33;;;;;;;6.63;2.20;;;19.20;1.00;;;;;;4974091;28;20447;-77
2023/09/14 09:54:04;;;;;;;4.30;2.27;;;19.10;99.90;;;;;;4973488;28;20459;-77
2023/09/14 09:56:33;;;;;;;4.73;2.17;;;19.00;99.90;;;;;;4973152;28;20451;-77
2023/09/14 09:59:04;;;;;;;4.30;2.23;;;19.00;99.90;;;;;;4972852;28;20481;-75
2023/09/14 10:01:31;;;;;;;3.97;2.43;;;19.00;1.00;;;;;;4972665;28;20458;-76
2023/09/14 10:03:59;;;;;;;5.33;2.20;;;19.10;1.00;;;;;;4972537;28;21028;-76
2023/09/14 10:06:27;;;;;;;7.87;2.73;;;19.10;1.00;;;;;;4972614;28;20457;-76
2023/09/14 10:08:57;;;;;;;5.17;2.40;;;19.10;1.00;;;;;;4971977;28;20468;-77
2023/09/14 10:11:25;;;;;;;4.90;2.20;;;19.20;1.00;;;;;;4972287;28;20467;-76
2023/09/14 10:13:52;;;;;;;5.13;2.83;;;19.30;99.90;;;;;;4972417;28;20557;-76
2023/09/14 10:16:23;;;;;;;9.10;2.03;;;19.40;99.90;;;;;;4972419;28;20976;-77
2023/09/14 10:18:54;;;;;;;4.07;2.03;;;19.40;99.90;;;;;;4974375;28;21055;-75
2023/09/14 10:21:24;;;;;;;5.00;1.93;;;19.40;1.00;;;;;;4975899;28;20465;-76
2023/09/14 10:23:52;;;;;;;5.93;2.30;;;19.40;99.90;;;;;;4976319;28;20455;-76
2023/09/14 10:26:19;;;;;;;3.17;1.73;;;19.50;99.90;;;;;;4975975;28;20451;-76
2023/09/14 10:28:47;;;;;;;3.73;1.83;;;19.50;99.90;;;;;;4975595;28;20475;-76
2023/09/14 10:31:15;;;;;;;6.07;2.43;;;19.50;99.90;;;;;;4975703;28;20908;-76
2023/09/14 10:33:45;;;;;;;4.17;2.30;;;19.50;99.90;;;;;;4975809;28;20459;-77
2023/09/14 10:36:12;;;;;;;4.30;2.00;;;19.90;1.00;;;;;;4975519;28;20954;-77
2023/09/14 10:38:44;;;;;;;3.40;2.20;;;20.20;99.90;;;;;;4975261;28;20503;-76
2023/09/14 10:41:12;;;;;;;5.87;2.40;;;20.60;1.00;;;;;;4975804;28;20877;-77
2023/09/14 10:43:41;;;;;;;4.87;2.37;;;20.80;1.00;;;;;;4975569;28;20470;-76
2023/09/14 10:46:15;;;;;;;5.40;2.00;;;21.10;99.90;;;;;;4975348;28;20845;-76
2023/09/14 10:48:43;;;;;;;5.63;2.70;;;21.00;92.20;;;;;;4975298;28;20906;-79
2023/09/14 10:51:11;;;;;;;5.80;2.70;;;21.00;1.00;;;;;;4975423;28;20455;-76
2023/09/14 10:53:41;;;;;;;3.77;2.30;;;21.10;99.90;;;;;;4975595;28;20482;-76
2023/09/14 10:56:20;;;;;;;6.30;2.70;;;21.00;99.90;;;;;;4975283;28;20461;-76
2023/09/14 10:58:52;;;;;;;4.10;2.00;;;20.90;99.90;;;;;;4974854;28;20887;-77
2023/09/14 11:01:25;;;;;;;3.93;1.93;;;20.80;90.10;;;;;;4975305;28;20455;-76
2023/09/14 11:04:13;;;;;;;3.43;1.60;;;20.50;1.00;;;;;;4975268;28;21010;-76
2023/09/14 11:06:44;;;;;;;2.67;1.53;;;20.40;38.80;;;;;;4974992;28;20819;-76
2023/09/14 11:09:14;;;;;;;10.40;2.40;;;20.20;57.60;;;;;;4974877;28;20909;-76
2023/09/14 11:11:43;;;;;;;4.00;1.90;;;20.20;99.90;;;;;;4975088;28;20463;-77
2023/09/14 11:14:10;;;;;;;2.80;1.70;;;20.10;88.90;;;;;;4974901;28;20462;-76
2023/09/14 11:16:47;;;;;;;3.17;2.20;;;20.10;99.90;;;;;;4974842;28;21034;-77
2023/09/14 11:19:47;;;;;;;4.97;2.03;;;19.90;99.90;;;;;;4974803;28;20530;-75
2023/09/14 11:22:16;;;;;;;4.60;2.13;;;19.80;1.00;;;;;;4974658;28;20945;-76
2023/09/14 11:24:45;;;;;;;5.50;2.13;;;19.80;99.90;;;;;;4975109;28;20844;-76
2023/09/14 11:27:19;;;;;;;4.03;2.20;;;19.70;99.90;;;;;;4974379;28;20456;-77
2023/09/14 11:29:46;;;;;;;3.80;1.60;;;19.70;56.50;;;;;;4973725;28;20455;-76
2023/09/14 11:32:21;;;;;;;4.50;2.30;;;19.60;99.90;;;;;;4974580;28;20457;-76
2023/09/14 11:34:48;;;;;;;4.67;2.17;;;19.60;1.00;;;;;;4974866;28;20486;-76
2023/09/14 11:37:16;;;;;;;6.90;2.83;;;19.60;1.00;;;;;;4974376;28;20542;-75
2023/09/14 11:39:53;;;;;;;6.00;2.70;;;19.60;1.00;;;;;;4974838;28;20459;-77
2023/09/14 11:42:20;;;;;;;10.03;3.50;;;19.60;99.90;;;;;;4974416;28;20909;-76
2023/09/14 11:44:49;;;;;;;3.10;2.20;;;19.80;99.90;;;;;;4974692;28;20506;-77
2023/09/14 11:47:17;;;;;;;3.27;1.90;;;20.00;99.90;;;;;;4974216;28;20459;-78
2023/09/14 11:49:47;;;;;;;5.17;2.37;;;20.20;99.90;;;;;;4974790;28;20462;-77
2023/09/14 11:52:19;;;;;;;4.93;2.67;;;20.40;1.00;;;;;;4974389;28;20482;-77
2023/09/14 11:54:51;;;;;;;3.97;1.87;;;20.80;99.90;;;;;;4974415;28;20849;-76
2023/09/14 11:57:17;;;;;;;4.07;2.33;;;21.30;37.40;;;;;;4974000;28;20483;-76
2023/09/14 11:59:44;;;;;;;4.90;2.20;;;22.10;99.90;;;;;;4974303;28;20460;-76
2023/09/14 12:02:13;;;;;;;5.80;1.93;;;22.20;99.90;;;;;;4974192;28;20452;-77
2023/09/14 12:04:41;;;;;;;4.70;2.33;;;22.20;25.10;;;;;;4974399;28;20526;-76
2023/09/14 12:07:10;;;;;;;3.37;1.67;;;22.60;99.90;;;;;;4973933;28;20473;-76
2023/09/14 12:09:38;;;;;;;4.53;2.17;;;23.20;1.00;;;;;;4973941;28;20534;-77
2023/09/14 12:12:09;;;;;;;5.90;2.40;;;23.70;92.20;;;;;;4974496;28;20843;-77
2023/09/14 12:14:37;;;;;;;4.87;2.10;;;24.20;1.00;;;;;;4975515;28;20514;-78
2023/09/14 12:17:17;;;;;;;3.27;2.40;;;24.20;1.00;;;;;;4975812;28;20542;-78
2023/09/14 12:19:50;;;;;;;3.90;2.07;;;23.80;1.00;;;;;;4975483;28;20448;-77
2023/09/14 12:22:18;;;;;;;6.70;2.50;;;23.90;1.00;;;;;;4974937;28;20452;-78
2023/09/14 12:24:45;;;;;;;6.00;2.07;;;24.10;1.00;;;;;;4975334;28;20850;-77
2023/09/14 12:27:14;;;;;;;5.03;2.87;;;24.30;1.00;;;;;;4974914;28;20452;-78
2023/09/14 12:29:43;;;;;;;4.67;2.80;;;24.20;1.00;;;;;;4975604;28;20447;-78
2023/09/14 12:32:10;;;;;;;4.90;2.60;;;24.70;1.00;;;;;;4975390;28;20461;-78
2023/09/14 12:34:37;;;;;;;12.90;8.60;;;24.90;1.00;;;;;;4974787;28;20872;-77
2023/09/14 12:37:04;;;;;;;7.03;4.03;;;24.60;1.00;;;;;;4974416;28;20837;-77
2023/09/14 12:39:32;;;;;;;7.10;2.67;;;24.10;1.00;;;;;;4974017;28;20499;-78
2023/09/14 12:42:02;;;;;;;3.87;2.20;;;23.70;1.00;;;;;;4974463;28;20813;-77
2023/09/14 12:44:30;;;;;;;4.60;3.03;;;24.00;1.00;;;;;;4974958;28;20456;-78
2023/09/14 12:46:58;;;;;;;4.70;2.43;;;24.60;1.00;;;;;;4975107;28;21048;-78
2023/09/14 12:49:24;;;;;;;5.67;2.40;;;25.30;1.00;;;;;;4975222;28;20550;-77
2023/09/14 12:51:52;;;;;;;5.27;2.73;;;25.60;1.00;;;;;;4974583;28;20455;-77
2023/09/14 12:54:25;;;;;;;5.37;2.60;;;25.40;1.00;;;;;;4974182;28;20820;-77